sensor_id;sensor_type;location;lat;lon;timestamp;P1;durP1;ratioP1;P2;durP2;ratioP2
35847;SDS011;22332;51.954;20.118;2023-04-15T00:03:00;7.60;;;6.40;;
35847;SDS011;22332;51.954;20.118;2023-04-15T00:06:06;8.50;;;6.40;;
35847;SDS011;22332;51.954;20.118;2023-04-15T00:09:12;8.80;;;6.40;;
35847;SDS011;22332;51.954;20.118;2023-04-15T00:12:17;7.90;;;6.70;;
35847;SDS011;22332;51.954;20.118;2023-04-15T00:15:23;8.90;;;5.50;;
35847;SDS011;22332;51.954;20.118;2023-04-15T00:18:29;7.50;;;6.00;;
35847;SDS011;22332;51.954;20.118;2023-04-15T00:21:34;9.60;;;6.50;;
35847;SDS011;22332;51.954;20.118;2023-04-15T00:24:39;8.20;;;6.30;;
35847;SDS011;22332;51.954;20.118;2023-04-15T00:27:45;7.40;;;6.30;;
35847;SDS011;22332;51.954;20.118;2023-04-15T00:30:51;7.90;;;6.70;;
35847;SDS011;22332;51.954;20.118;2023-04-15T00:33:56;8.10;;;6.50;;
35847;SDS011;22332;51.954;20.118;2023-04-15T00:37:02;9.00;;;6.60;;
35847;SDS011;22332;51.954;20.118;2023-04-15T00:40:09;8.50;;;6.70;;
35847;SDS011;22332;51.954;20.118;2023-04-15T00:43:17;9.50;;;6.60;;
35847;SDS011;22332;51.954;20.118;2023-04-15T00:46:22;8.00;;;6.70;;
35847;SDS011;22332;51.954;20.118;2023-04-15T00:49:29;10.20;;;7.30;;
35847;SDS011;22332;51.954;20.118;2023-04-15T00:52:35;8.90;;;7.00;;
35847;SDS011;22332;51.954;20.118;2023-04-15T00:55:41;9.10;;;6.20;;
35847;SDS011;22332;51.954;20.118;2023-04-15T00:58:46;8.00;;;5.80;;
35847;SDS011;22332;51.954;20.118;2023-04-15T01:01:52;8.30;;;6.20;;
35847;SDS011;22332;51.954;20.118;2023-04-15T01:04:58;8.40;;;6.70;;
35847;SDS011;22332;51.954;20.118;2023-04-15T01:08:04;8.30;;;6.70;;
35847;SDS011;22332;51.954;20.118;2023-04-15T01:11:10;8.00;;;6.60;;
35847;SDS011;22332;51.954;20.118;2023-04-15T01:14:17;8.40;;;6.90;;
35847;SDS011;22332;51.954;20.118;2023-04-15T01:17:22;8.80;;;7.10;;
35847;SDS011;22332;51.954;20.118;2023-04-15T01:20:28;8.00;;;6.60;;
35847;SDS011;22332;51.954;20.118;2023-04-15T01:23:36;8.00;;;7.10;;
35847;SDS011;22332;51.954;20.118;2023-04-15T01:26:43;10.20;;;7.40;;
35847;SDS011;22332;51.954;20.118;2023-04-15T01:29:50;8.50;;;7.00;;
35847;SDS011;22332;51.954;20.118;2023-04-15T01:32:56;8.60;;;6.70;;
35847;SDS011;22332;51.954;20.118;2023-04-15T01:36:01;7.50;;;6.00;;
35847;SDS011;22332;51.954;20.118;2023-04-15T01:39:08;8.00;;;6.70;;
35847;SDS011;22332;51.954;20.118;2023-04-15T01:42:14;9.50;;;7.10;;
35847;SDS011;22332;51.954;20.118;2023-04-15T01:45:19;9.30;;;6.90;;
35847;SDS011;22332;51.954;20.118;2023-04-15T01:48:25;7.60;;;6.60;;
35847;SDS011;22332;51.954;20.118;2023-04-15T01:51:30;10.10;;;8.30;;
35847;SDS011;22332;51.954;20.118;2023-04-15T01:54:36;10.10;;;7.80;;
35847;SDS011;22332;51.954;20.118;2023-04-15T01:57:41;11.10;;;8.20;;
35847;SDS011;22332;51.954;20.118;2023-04-15T02:00:47;15.00;;;9.90;;
35847;SDS011;22332;51.954;20.118;2023-04-15T02:03:53;16.60;;;10.50;;
35847;SDS011;22332;51.954;20.118;2023-04-15T02:06:58;16.90;;;10.60;;
35847;SDS011;22332;51.954;20.118;2023-04-15T02:10:05;16.70;;;11.10;;
35847;SDS011;22332;51.954;20.118;2023-04-15T02:13:12;14.90;;;11.20;;
35847;SDS011;22332;51.954;20.118;2023-04-15T02:16:18;12.90;;;9.50;;
35847;SDS011;22332;51.954;20.118;2023-04-15T02:19:24;12.40;;;9.40;;
35847;SDS011;22332;51.954;20.118;2023-04-15T02:22:30;11.50;;;8.60;;
35847;SDS011;22332;51.954;20.118;2023-04-15T02:25:35;11.70;;;9.10;;
35847;SDS011;22332;51.954;20.118;2023-04-15T02:28:42;12.60;;;9.00;;
35847;SDS011;22332;51.954;20.118;2023-04-15T02:31:50;10.60;;;8.10;;
35847;SDS011;22332;51.954;20.118;2023-04-15T02:34:58;11.20;;;9.40;;
35847;SDS011;22332;51.954;20.118;2023-04-15T02:38:07;11.00;;;8.90;;
35847;SDS011;22332;51.954;20.118;2023-04-15T02:41:13;10.50;;;8.80;;
35847;SDS011;22332;51.954;20.118;2023-04-15T02:44:21;10.60;;;8.60;;
35847;SDS011;22332;51.954;20.118;2023-04-15T02:47:28;10.90;;;9.10;;
35847;SDS011;22332;51.954;20.118;2023-04-15T02:50:33;11.80;;;9.20;;
35847;SDS011;22332;51.954;20.118;2023-04-15T02:53:41;11.00;;;8.50;;
35847;SDS011;22332;51.954;20.118;2023-04-15T02:56:46;10.20;;;8.70;;
35847;SDS011;22332;51.954;20.118;2023-04-15T02:59:52;11.20;;;8.80;;
35847;SDS011;22332;51.954;20.118;2023-04-15T03:03:00;11.50;;;9.40;;
35847;SDS011;22332;51.954;20.118;2023-04-15T03:06:07;11.40;;;9.80;;
35847;SDS011;22332;51.954;20.118;2023-04-15T03:09:12;10.70;;;9.30;;
35847;SDS011;22332;51.954;20.118;2023-04-15T03:12:19;12.00;;;9.90;;
35847;SDS011;22332;51.954;20.118;2023-04-15T03:15:28;12.00;;;9.40;;
35847;SDS011;22332;51.954;20.118;2023-04-15T03:18:33;11.70;;;9.10;;
35847;SDS011;22332;51.954;20.118;2023-04-15T03:21:39;11.30;;;8.00;;
35847;SDS011;22332;51.954;20.118;2023-04-15T03:24:44;11.30;;;9.00;;
35847;SDS011;22332;51.954;20.118;2023-04-15T03:27:50;11.20;;;9.40;;
35847;SDS011;22332;51.954;20.118;2023-04-15T03:30:55;13.60;;;10.50;;
35847;SDS011;22332;51.954;20.118;2023-04-15T03:34:01;11.90;;;9.50;;
35847;SDS011;22332;51.954;20.118;2023-04-15T03:37:07;13.80;;;10.70;;
35847;SDS011;22332;51.954;20.118;2023-04-15T03:40:13;14.70;;;11.30;;
35847;SDS011;22332;51.954;20.118;2023-04-15T03:43:18;14.80;;;10.00;;
35847;SDS011;22332;51.954;20.118;2023-04-15T03:46:24;12.70;;;9.20;;
35847;SDS011;22332;51.954;20.118;2023-04-15T03:49:29;19.20;;;11.20;;
35847;SDS011;22332;51.954;20.118;2023-04-15T03:52:35;16.50;;;10.90;;
35847;SDS011;22332;51.954;20.118;2023-04-15T03:55:40;15.10;;;10.20;;
35847;SDS011;22332;51.954;20.118;2023-04-15T03:58:46;12.20;;;9.00;;
35847;SDS011;22332;51.954;20.118;2023-04-15T04:01:51;14.30;;;9.70;;
35847;SDS011;22332;51.954;20.118;2023-04-15T04:04:57;13.70;;;9.20;;
35847;SDS011;22332;51.954;20.118;2023-04-15T04:08:03;11.40;;;8.00;;
35847;SDS011;22332;51.954;20.118;2023-04-15T04:11:09;13.20;;;9.70;;
35847;SDS011;22332;51.954;20.118;2023-04-15T04:14:14;17.90;;;11.70;;
35847;SDS011;22332;51.954;20.118;2023-04-15T04:17:20;22.60;;;13.90;;
35847;SDS011;22332;51.954;20.118;2023-04-15T04:20:25;25.20;;;14.90;;
35847;SDS011;22332;51.954;20.118;2023-04-15T04:23:31;20.00;;;12.50;;
35847;SDS011;22332;51.954;20.118;2023-04-15T04:26:37;15.90;;;11.20;;
35847;SDS011;22332;51.954;20.118;2023-04-15T04:29:43;16.70;;;10.10;;
35847;SDS011;22332;51.954;20.118;2023-04-15T04:32:49;11.40;;;7.50;;
35847;SDS011;22332;51.954;20.118;2023-04-15T04:35:55;13.60;;;9.10;;
35847;SDS011;22332;51.954;20.118;2023-04-15T04:39:00;15.40;;;9.50;;
35847;SDS011;22332;51.954;20.118;2023-04-15T04:42:06;14.10;;;9.30;;
35847;SDS011;22332;51.954;20.118;2023-04-15T04:45:11;17.80;;;10.20;;
35847;SDS011;22332;51.954;20.118;2023-04-15T04:48:17;25.60;;;12.50;;
35847;SDS011;22332;51.954;20.118;2023-04-15T04:51:22;21.80;;;10.40;;
35847;SDS011;22332;51.954;20.118;2023-04-15T04:54:28;13.50;;;8.20;;
35847;SDS011;22332;51.954;20.118;2023-04-15T04:57:33;17.10;;;9.90;;
35847;SDS011;22332;51.954;20.118;2023-04-15T05:00:40;14.90;;;8.70;;
35847;SDS011;22332;51.954;20.118;2023-04-15T05:03:45;13.40;;;9.10;;
35847;SDS011;22332;51.954;20.118;2023-04-15T05:06:51;12.40;;;8.40;;
35847;SDS011;22332;51.954;20.118;2023-04-15T05:09:56;11.60;;;8.70;;
35847;SDS011;22332;51.954;20.118;2023-04-15T05:13:02;11.20;;;7.80;;
35847;SDS011;22332;51.954;20.118;2023-04-15T05:16:08;11.20;;;7.40;;
35847;SDS011;22332;51.954;20.118;2023-04-15T05:19:14;8.90;;;7.60;;
35847;SDS011;22332;51.954;20.118;2023-04-15T05:22:19;10.10;;;7.40;;
35847;SDS011;22332;51.954;20.118;2023-04-15T05:25:27;9.30;;;7.20;;
35847;SDS011;22332;51.954;20.118;2023-04-15T05:28:32;9.00;;;7.50;;
35847;SDS011;22332;51.954;20.118;2023-04-15T05:31:38;9.60;;;6.90;;
35847;SDS011;22332;51.954;20.118;2023-04-15T05:34:43;12.70;;;9.00;;
35847;SDS011;22332;51.954;20.118;2023-04-15T05:37:49;10.70;;;7.60;;
35847;SDS011;22332;51.954;20.118;2023-04-15T05:40:54;9.40;;;7.10;;
35847;SDS011;22332;51.954;20.118;2023-04-15T05:44:00;12.30;;;8.50;;
35847;SDS011;22332;51.954;20.118;2023-04-15T05:47:05;10.40;;;8.60;;
35847;SDS011;22332;51.954;20.118;2023-04-15T05:50:12;9.20;;;7.40;;
35847;SDS011;22332;51.954;20.118;2023-04-15T05:53:18;10.90;;;8.80;;
35847;SDS011;22332;51.954;20.118;2023-04-15T05:56:23;12.00;;;9.10;;
35847;SDS011;22332;51.954;20.118;2023-04-15T05:59:29;12.30;;;9.40;;
35847;SDS011;22332;51.954;20.118;2023-04-15T06:02:35;10.80;;;8.50;;
35847;SDS011;22332;51.954;20.118;2023-04-15T06:05:40;11.80;;;8.70;;
35847;SDS011;22332;51.954;20.118;2023-04-15T06:08:46;12.30;;;8.80;;
35847;SDS011;22332;51.954;20.118;2023-04-15T08:55:21;8.00;;;6.60;;
35847;SDS011;22332;51.954;20.118;2023-04-15T08:58:27;9.60;;;7.10;;
35847;SDS011;22332;51.954;20.118;2023-04-15T09:01:34;8.10;;;6.70;;
35847;SDS011;22332;51.954;20.118;2023-04-15T09:04:40;7.90;;;6.40;;
35847;SDS011;22332;51.954;20.118;2023-04-15T09:07:45;10.50;;;7.50;;
35847;SDS011;22332;51.954;20.118;2023-04-15T09:10:51;8.80;;;6.60;;
35847;SDS011;22332;51.954;20.118;2023-04-15T09:13:58;12.40;;;7.50;;
35847;SDS011;22332;51.954;20.118;2023-04-15T09:17:03;9.40;;;7.00;;
35847;SDS011;22332;51.954;20.118;2023-04-15T09:20:14;10.20;;;7.10;;
35847;SDS011;22332;51.954;20.118;2023-04-15T09:23:20;10.40;;;7.50;;
35847;SDS011;22332;51.954;20.118;2023-04-15T09:26:33;9.00;;;7.10;;
35847;SDS011;22332;51.954;20.118;2023-04-15T09:29:41;12.10;;;8.10;;
35847;SDS011;22332;51.954;20.118;2023-04-15T09:32:50;9.00;;;6.70;;
35847;SDS011;22332;51.954;20.118;2023-04-15T09:35:57;8.00;;;5.50;;
35847;SDS011;22332;51.954;20.118;2023-04-15T09:39:04;5.90;;;5.10;;
35847;SDS011;22332;51.954;20.118;2023-04-15T09:42:09;6.50;;;5.50;;
35847;SDS011;22332;51.954;20.118;2023-04-15T09:45:15;9.90;;;7.20;;
35847;SDS011;22332;51.954;20.118;2023-04-15T09:48:23;8.10;;;6.90;;
35847;SDS011;22332;51.954;20.118;2023-04-15T09:51:33;9.00;;;6.70;;
35847;SDS011;22332;51.954;20.118;2023-04-15T09:54:39;12.20;;;8.70;;
35847;SDS011;22332;51.954;20.118;2023-04-15T09:57:47;9.10;;;7.10;;
35847;SDS011;22332;51.954;20.118;2023-04-15T10:00:53;7.10;;;5.70;;
35847;SDS011;22332;51.954;20.118;2023-04-15T10:03:59;9.90;;;6.90;;
35847;SDS011;22332;51.954;20.118;2023-04-15T10:07:07;10.50;;;6.90;;
35847;SDS011;22332;51.954;20.118;2023-04-15T10:10:14;10.90;;;7.90;;
35847;SDS011;22332;51.954;20.118;2023-04-15T10:13:21;21.80;;;13.40;;
35847;SDS011;22332;51.954;20.118;2023-04-15T10:16:28;22.20;;;12.50;;
35847;SDS011;22332;51.954;20.118;2023-04-15T10:19:39;13.30;;;8.70;;
35847;SDS011;22332;51.954;20.118;2023-04-15T10:22:45;14.00;;;8.70;;
35847;SDS011;22332;51.954;20.118;2023-04-15T10:25:51;12.30;;;7.60;;
35847;SDS011;22332;51.954;20.118;2023-04-15T10:28:57;14.10;;;8.30;;
35847;SDS011;22332;51.954;20.118;2023-04-15T10:32:04;10.90;;;6.70;;
35847;SDS011;22332;51.954;20.118;2023-04-15T10:35:09;10.20;;;7.00;;
35847;SDS011;22332;51.954;20.118;2023-04-15T10:38:32;30.80;;;14.00;;
35847;SDS011;22332;51.954;20.118;2023-04-15T10:41:39;43.50;;;17.80;;
35847;SDS011;22332;51.954;20.118;2023-04-15T10:44:44;32.90;;;16.10;;
35847;SDS011;22332;51.954;20.118;2023-04-15T10:47:55;26.10;;;13.30;;
35847;SDS011;22332;51.954;20.118;2023-04-15T10:51:04;11.90;;;9.40;;
35847;SDS011;22332;51.954;20.118;2023-04-15T10:54:13;11.40;;;7.80;;
35847;SDS011;22332;51.954;20.118;2023-04-15T10:57:38;14.50;;;8.50;;
35847;SDS011;22332;51.954;20.118;2023-04-15T11:00:44;8.30;;;6.40;;
35847;SDS011;22332;51.954;20.118;2023-04-15T11:03:55;9.80;;;6.90;;
35847;SDS011;22332;51.954;20.118;2023-04-15T11:07:05;7.60;;;6.40;;
35847;SDS011;22332;51.954;20.118;2023-04-15T11:13:55;7.30;;;6.00;;
35847;SDS011;22332;51.954;20.118;2023-04-15T11:17:01;8.10;;;6.00;;
35847;SDS011;22332;51.954;20.118;2023-04-15T11:20:08;6.80;;;5.00;;
35847;SDS011;22332;51.954;20.118;2023-04-15T11:23:18;8.80;;;6.50;;
35847;SDS011;22332;51.954;20.118;2023-04-15T11:26:30;8.70;;;6.50;;
35847;SDS011;22332;51.954;20.118;2023-04-15T11:29:35;7.80;;;6.10;;
35847;SDS011;22332;51.954;20.118;2023-04-15T11:32:42;9.60;;;6.60;;
35847;SDS011;22332;51.954;20.118;2023-04-15T11:35:47;8.50;;;6.90;;
35847;SDS011;22332;51.954;20.118;2023-04-15T11:38:52;7.20;;;5.80;;
35847;SDS011;22332;51.954;20.118;2023-04-15T11:42:00;7.60;;;5.60;;
35847;SDS011;22332;51.954;20.118;2023-04-15T11:45:09;6.40;;;5.50;;
35847;SDS011;22332;51.954;20.118;2023-04-15T11:48:16;6.00;;;5.00;;
35847;SDS011;22332;51.954;20.118;2023-04-15T11:51:22;5.60;;;4.60;;
35847;SDS011;22332;51.954;20.118;2023-04-15T11:54:27;5.80;;;4.60;;
35847;SDS011;22332;51.954;20.118;2023-04-15T11:57:33;5.90;;;4.10;;
35847;SDS011;22332;51.954;20.118;2023-04-15T12:00:39;5.80;;;4.80;;
35847;SDS011;22332;51.954;20.118;2023-04-15T12:03:49;6.60;;;4.70;;
35847;SDS011;22332;51.954;20.118;2023-04-15T12:06:55;5.50;;;4.70;;
35847;SDS011;22332;51.954;20.118;2023-04-15T12:10:09;5.70;;;4.50;;
35847;SDS011;22332;51.954;20.118;2023-04-15T12:13:14;7.10;;;5.30;;
35847;SDS011;22332;51.954;20.118;2023-04-15T12:16:20;7.20;;;5.50;;
35847;SDS011;22332;51.954;20.118;2023-04-15T12:19:27;10.90;;;5.90;;
35847;SDS011;22332;51.954;20.118;2023-04-15T12:22:36;8.10;;;5.30;;
35847;SDS011;22332;51.954;20.118;2023-04-15T12:25:42;7.20;;;5.00;;
35847;SDS011;22332;51.954;20.118;2023-04-15T12:28:54;7.40;;;4.80;;
35847;SDS011;22332;51.954;20.118;2023-04-15T12:32:06;9.10;;;5.90;;
35847;SDS011;22332;51.954;20.118;2023-04-15T12:35:14;5.90;;;4.30;;
35847;SDS011;22332;51.954;20.118;2023-04-15T12:38:21;5.90;;;3.90;;
35847;SDS011;22332;51.954;20.118;2023-04-15T12:41:26;7.10;;;4.40;;
35847;SDS011;22332;51.954;20.118;2023-04-15T12:44:32;4.90;;;3.60;;
35847;SDS011;22332;51.954;20.118;2023-04-15T12:47:38;4.10;;;3.50;;
35847;SDS011;22332;51.954;20.118;2023-04-15T12:50:44;7.00;;;4.10;;
35847;SDS011;22332;51.954;20.118;2023-04-15T12:53:49;4.30;;;3.50;;
35847;SDS011;22332;51.954;20.118;2023-04-15T12:56:55;7.00;;;4.60;;
35847;SDS011;22332;51.954;20.118;2023-04-15T13:00:01;7.50;;;5.50;;
35847;SDS011;22332;51.954;20.118;2023-04-15T13:03:09;5.70;;;3.70;;
35847;SDS011;22332;51.954;20.118;2023-04-15T13:06:15;5.80;;;4.00;;
35847;SDS011;22332;51.954;20.118;2023-04-15T13:09:20;5.20;;;3.90;;
35847;SDS011;22332;51.954;20.118;2023-04-15T13:12:26;5.50;;;4.20;;
35847;SDS011;22332;51.954;20.118;2023-04-15T13:15:32;6.40;;;4.30;;
35847;SDS011;22332;51.954;20.118;2023-04-15T13:18:38;8.40;;;4.70;;
35847;SDS011;22332;51.954;20.118;2023-04-15T13:21:44;8.30;;;5.30;;
35847;SDS011;22332;51.954;20.118;2023-04-15T13:24:50;6.00;;;3.90;;
35847;SDS011;22332;51.954;20.118;2023-04-15T13:27:55;5.80;;;3.80;;
35847;SDS011;22332;51.954;20.118;2023-04-15T13:31:00;6.40;;;4.60;;
35847;SDS011;22332;51.954;20.118;2023-04-15T13:34:06;5.80;;;4.30;;
35847;SDS011;22332;51.954;20.118;2023-04-15T13:37:11;5.50;;;3.80;;
35847;SDS011;22332;51.954;20.118;2023-04-15T13:40:18;5.70;;;3.80;;
35847;SDS011;22332;51.954;20.118;2023-04-15T13:43:24;3.80;;;2.90;;
35847;SDS011;22332;51.954;20.118;2023-04-15T13:46:29;4.70;;;3.60;;
35847;SDS011;22332;51.954;20.118;2023-04-15T13:49:35;4.20;;;3.50;;
35847;SDS011;22332;51.954;20.118;2023-04-15T13:52:40;3.90;;;3.10;;
35847;SDS011;22332;51.954;20.118;2023-04-15T13:55:46;6.00;;;3.70;;
35847;SDS011;22332;51.954;20.118;2023-04-15T13:58:52;8.10;;;7.20;;
35847;SDS011;22332;51.954;20.118;2023-04-15T14:02:00;4.30;;;3.00;;
35847;SDS011;22332;51.954;20.118;2023-04-15T14:05:06;4.70;;;2.90;;
35847;SDS011;22332;51.954;20.118;2023-04-15T14:08:13;5.50;;;3.20;;
35847;SDS011;22332;51.954;20.118;2023-04-15T14:11:18;7.20;;;3.20;;
35847;SDS011;22332;51.954;20.118;2023-04-15T14:14:24;3.80;;;2.40;;
35847;SDS011;22332;51.954;20.118;2023-04-15T14:17:29;3.20;;;2.00;;
35847;SDS011;22332;51.954;20.118;2023-04-15T14:20:35;2.40;;;1.40;;
35847;SDS011;22332;51.954;20.118;2023-04-15T14:23:41;1.80;;;1.10;;
35847;SDS011;22332;51.954;20.118;2023-04-15T14:26:47;2.20;;;1.30;;
35847;SDS011;22332;51.954;20.118;2023-04-15T14:29:52;1.80;;;1.40;;
35847;SDS011;22332;51.954;20.118;2023-04-15T14:33:01;1.90;;;1.50;;
35847;SDS011;22332;51.954;20.118;2023-04-15T14:36:07;2.00;;;1.70;;
35847;SDS011;22332;51.954;20.118;2023-04-15T14:39:13;2.20;;;1.80;;
35847;SDS011;22332;51.954;20.118;2023-04-15T14:42:19;2.60;;;1.60;;
35847;SDS011;22332;51.954;20.118;2023-04-15T14:45:24;1.60;;;1.30;;
35847;SDS011;22332;51.954;20.118;2023-04-15T14:48:30;1.90;;;1.20;;
35847;SDS011;22332;51.954;20.118;2023-04-15T14:51:37;2.30;;;1.40;;
35847;SDS011;22332;51.954;20.118;2023-04-15T14:54:43;1.70;;;1.40;;
35847;SDS011;22332;51.954;20.118;2023-04-15T14:57:48;3.10;;;1.90;;
35847;SDS011;22332;51.954;20.118;2023-04-15T15:00:59;3.20;;;2.00;;
35847;SDS011;22332;51.954;20.118;2023-04-15T15:04:06;5.50;;;3.90;;
35847;SDS011;22332;51.954;20.118;2023-04-15T15:07:12;2.90;;;2.20;;
35847;SDS011;22332;51.954;20.118;2023-04-15T15:10:18;3.10;;;2.10;;
35847;SDS011;22332;51.954;20.118;2023-04-15T15:13:24;3.30;;;2.20;;
35847;SDS011;22332;51.954;20.118;2023-04-15T15:16:30;2.80;;;1.80;;
35847;SDS011;22332;51.954;20.118;2023-04-15T15:19:35;3.80;;;2.30;;
35847;SDS011;22332;51.954;20.118;2023-04-15T15:22:41;3.00;;;1.70;;
35847;SDS011;22332;51.954;20.118;2023-04-15T15:25:46;2.90;;;2.30;;
35847;SDS011;22332;51.954;20.118;2023-04-15T15:28:52;3.20;;;2.30;;
35847;SDS011;22332;51.954;20.118;2023-04-15T15:31:57;6.70;;;4.90;;
35847;SDS011;22332;51.954;20.118;2023-04-15T15:35:03;4.30;;;3.10;;
35847;SDS011;22332;51.954;20.118;2023-04-15T15:38:10;5.20;;;3.40;;
35847;SDS011;22332;51.954;20.118;2023-04-15T15:41:18;6.50;;;4.70;;
35847;SDS011;22332;51.954;20.118;2023-04-15T15:44:24;8.10;;;5.10;;
35847;SDS011;22332;51.954;20.118;2023-04-15T15:47:29;6.70;;;3.60;;
35847;SDS011;22332;51.954;20.118;2023-04-15T15:50:35;14.10;;;9.20;;
35847;SDS011;22332;51.954;20.118;2023-04-15T15:53:40;12.00;;;7.70;;
35847;SDS011;22332;51.954;20.118;2023-04-15T15:56:46;12.00;;;7.60;;
35847;SDS011;22332;51.954;20.118;2023-04-15T15:59:52;48.90;;;22.80;;
35847;SDS011;22332;51.954;20.118;2023-04-15T16:02:57;21.30;;;10.80;;
35847;SDS011;22332;51.954;20.118;2023-04-15T16:06:03;12.30;;;6.50;;
35847;SDS011;22332;51.954;20.118;2023-04-15T16:09:09;8.80;;;5.10;;
35847;SDS011;22332;51.954;20.118;2023-04-15T16:12:15;34.60;;;17.00;;
35847;SDS011;22332;51.954;20.118;2023-04-15T16:15:21;13.50;;;6.80;;
35847;SDS011;22332;51.954;20.118;2023-04-15T16:18:27;10.90;;;5.30;;
35847;SDS011;22332;51.954;20.118;2023-04-15T16:21:33;19.80;;;8.90;;
35847;SDS011;22332;51.954;20.118;2023-04-15T16:24:38;8.80;;;4.60;;
35847;SDS011;22332;51.954;20.118;2023-04-15T16:27:44;8.00;;;5.60;;
35847;SDS011;22332;51.954;20.118;2023-04-15T16:30:49;13.40;;;9.50;;
35847;SDS011;22332;51.954;20.118;2023-04-15T16:33:55;9.90;;;6.30;;
35847;SDS011;22332;51.954;20.118;2023-04-15T16:37:01;10.00;;;6.60;;
35847;SDS011;22332;51.954;20.118;2023-04-15T16:40:08;7.70;;;5.00;;
35847;SDS011;22332;51.954;20.118;2023-04-15T16:43:14;6.50;;;5.20;;
35847;SDS011;22332;51.954;20.118;2023-04-15T16:46:19;7.70;;;5.60;;
35847;SDS011;22332;51.954;20.118;2023-04-15T16:49:25;6.00;;;4.70;;
35847;SDS011;22332;51.954;20.118;2023-04-15T16:52:30;5.80;;;4.20;;
35847;SDS011;22332;51.954;20.118;2023-04-15T16:55:38;6.70;;;4.40;;
35847;SDS011;22332;51.954;20.118;2023-04-15T16:58:43;8.00;;;5.50;;
35847;SDS011;22332;51.954;20.118;2023-04-15T17:01:49;8.20;;;5.80;;
35847;SDS011;22332;51.954;20.118;2023-04-15T17:04:56;9.60;;;5.80;;
35847;SDS011;22332;51.954;20.118;2023-04-15T17:08:01;7.80;;;5.00;;
35847;SDS011;22332;51.954;20.118;2023-04-15T17:11:07;9.50;;;6.20;;
35847;SDS011;22332;51.954;20.118;2023-04-15T17:14:13;8.90;;;5.70;;
35847;SDS011;22332;51.954;20.118;2023-04-15T17:17:18;11.40;;;6.40;;
35847;SDS011;22332;51.954;20.118;2023-04-15T17:20:24;9.50;;;6.20;;
35847;SDS011;22332;51.954;20.118;2023-04-15T17:23:30;12.50;;;6.10;;
35847;SDS011;22332;51.954;20.118;2023-04-15T17:26:35;9.80;;;6.20;;
35847;SDS011;22332;51.954;20.118;2023-04-15T17:29:41;10.80;;;6.40;;
35847;SDS011;22332;51.954;20.118;2023-04-15T17:32:46;9.40;;;6.70;;
35847;SDS011;22332;51.954;20.118;2023-04-15T17:35:52;9.40;;;6.30;;
35847;SDS011;22332;51.954;20.118;2023-04-15T17:38:57;10.20;;;6.10;;
35847;SDS011;22332;51.954;20.118;2023-04-15T17:42:03;9.30;;;6.00;;
35847;SDS011;22332;51.954;20.118;2023-04-15T17:45:09;6.70;;;4.40;;
35847;SDS011;22332;51.954;20.118;2023-04-15T17:48:15;9.00;;;5.50;;
35847;SDS011;22332;51.954;20.118;2023-04-15T17:51:20;10.60;;;6.40;;
35847;SDS011;22332;51.954;20.118;2023-04-15T17:54:26;10.90;;;7.20;;
35847;SDS011;22332;51.954;20.118;2023-04-15T17:57:31;12.80;;;7.30;;
35847;SDS011;22332;51.954;20.118;2023-04-15T18:00:37;15.00;;;8.90;;
35847;SDS011;22332;51.954;20.118;2023-04-15T18:03:43;11.70;;;7.30;;
35847;SDS011;22332;51.954;20.118;2023-04-15T18:06:49;10.20;;;6.60;;
35847;SDS011;22332;51.954;20.118;2023-04-15T18:09:55;8.90;;;6.30;;
35847;SDS011;22332;51.954;20.118;2023-04-15T18:13:01;9.50;;;5.60;;
35847;SDS011;22332;51.954;20.118;2023-04-15T18:16:06;7.50;;;5.30;;
35847;SDS011;22332;51.954;20.118;2023-04-15T18:19:12;9.70;;;7.40;;
35847;SDS011;22332;51.954;20.118;2023-04-15T18:22:18;7.30;;;4.70;;
35847;SDS011;22332;51.954;20.118;2023-04-15T18:25:24;5.90;;;4.50;;
35847;SDS011;22332;51.954;20.118;2023-04-15T18:28:30;5.60;;;4.00;;
35847;SDS011;22332;51.954;20.118;2023-04-15T18:31:36;12.10;;;9.60;;
35847;SDS011;22332;51.954;20.118;2023-04-15T18:34:42;12.30;;;7.10;;
35847;SDS011;22332;51.954;20.118;2023-04-15T18:37:47;9.90;;;6.90;;
35847;SDS011;22332;51.954;20.118;2023-04-15T18:40:52;9.40;;;5.30;;
35847;SDS011;22332;51.954;20.118;2023-04-15T18:43:58;9.70;;;6.60;;
35847;SDS011;22332;51.954;20.118;2023-04-15T18:47:03;12.50;;;8.40;;
35847;SDS011;22332;51.954;20.118;2023-04-15T18:50:09;12.70;;;8.10;;
35847;SDS011;22332;51.954;20.118;2023-04-15T18:53:15;10.90;;;7.90;;
35847;SDS011;22332;51.954;20.118;2023-04-15T18:56:20;10.90;;;8.40;;
35847;SDS011;22332;51.954;20.118;2023-04-15T18:59:25;11.00;;;7.00;;
35847;SDS011;22332;51.954;20.118;2023-04-15T19:02:31;15.90;;;9.00;;
35847;SDS011;22332;51.954;20.118;2023-04-15T19:05:37;40.00;;;17.30;;
35847;SDS011;22332;51.954;20.118;2023-04-15T19:08:44;39.70;;;18.60;;
35847;SDS011;22332;51.954;20.118;2023-04-15T19:11:49;35.40;;;18.80;;
35847;SDS011;22332;51.954;20.118;2023-04-15T19:14:55;24.60;;;13.00;;
35847;SDS011;22332;51.954;20.118;2023-04-15T19:18:00;20.50;;;12.20;;
35847;SDS011;22332;51.954;20.118;2023-04-15T19:21:12;15.40;;;9.30;;
35847;SDS011;22332;51.954;20.118;2023-04-15T19:24:17;13.10;;;8.30;;
35847;SDS011;22332;51.954;20.118;2023-04-15T19:27:23;12.30;;;7.10;;
35847;SDS011;22332;51.954;20.118;2023-04-15T19:30:29;13.70;;;9.60;;
35847;SDS011;22332;51.954;20.118;2023-04-15T19:33:35;10.90;;;7.50;;
35847;SDS011;22332;51.954;20.118;2023-04-15T19:36:41;8.60;;;5.30;;
35847;SDS011;22332;51.954;20.118;2023-04-15T19:39:47;15.30;;;10.40;;
35847;SDS011;22332;51.954;20.118;2023-04-15T19:42:52;11.90;;;7.80;;
35847;SDS011;22332;51.954;20.118;2023-04-15T19:45:58;18.50;;;11.20;;
35847;SDS011;22332;51.954;20.118;2023-04-15T19:49:03;17.20;;;11.40;;
35847;SDS011;22332;51.954;20.118;2023-04-15T19:52:09;12.40;;;8.70;;
35847;SDS011;22332;51.954;20.118;2023-04-15T19:55:15;13.20;;;8.90;;
35847;SDS011;22332;51.954;20.118;2023-04-15T19:58:21;8.90;;;6.40;;
35847;SDS011;22332;51.954;20.118;2023-04-15T20:01:27;11.80;;;7.50;;
35847;SDS011;22332;51.954;20.118;2023-04-15T20:04:33;12.60;;;7.40;;
35847;SDS011;22332;51.954;20.118;2023-04-15T20:07:38;21.60;;;12.50;;
35847;SDS011;22332;51.954;20.118;2023-04-15T20:10:46;11.60;;;6.10;;
35847;SDS011;22332;51.954;20.118;2023-04-15T20:13:51;8.60;;;5.30;;
35847;SDS011;22332;51.954;20.118;2023-04-15T20:16:56;24.40;;;10.80;;
35847;SDS011;22332;51.954;20.118;2023-04-15T20:20:02;13.80;;;6.90;;
35847;SDS011;22332;51.954;20.118;2023-04-15T20:23:09;10.20;;;5.60;;
35847;SDS011;22332;51.954;20.118;2023-04-15T20:26:14;9.80;;;6.00;;
35847;SDS011;22332;51.954;20.118;2023-04-15T20:29:19;23.80;;;13.70;;
35847;SDS011;22332;51.954;20.118;2023-04-15T20:32:25;11.90;;;6.70;;
35847;SDS011;22332;51.954;20.118;2023-04-15T20:35:33;12.10;;;7.70;;
35847;SDS011;22332;51.954;20.118;2023-04-15T20:38:39;7.80;;;5.50;;
35847;SDS011;22332;51.954;20.118;2023-04-15T20:41:44;8.50;;;6.00;;
35847;SDS011;22332;51.954;20.118;2023-04-15T20:44:52;10.40;;;6.70;;
35847;SDS011;22332;51.954;20.118;2023-04-15T20:47:58;11.30;;;7.00;;
35847;SDS011;22332;51.954;20.118;2023-04-15T20:51:03;10.40;;;6.90;;
35847;SDS011;22332;51.954;20.118;2023-04-15T20:54:09;10.40;;;6.70;;
35847;SDS011;22332;51.954;20.118;2023-04-15T20:57:15;6.60;;;5.10;;
35847;SDS011;22332;51.954;20.118;2023-04-15T21:00:21;9.60;;;7.00;;
35847;SDS011;22332;51.954;20.118;2023-04-15T21:03:27;10.90;;;6.20;;